• Join FlightAware (Why Join?)
  • Login
  • US Flag 
01:04PM EDT


 

Airport Tracker/Info


-or-


 

Live Flight TrackerFlight Track Log ✈ SWA561 ✈ 18-Apr-2013 ✈ KLAX - KTUS

Flight Track Log - Related Links

Times and Time Zones

All times are in EDT time to prevent confusion due to time zone crossing. See the SWA561 flight status page for this flight to view local times or setup timezone preferences in your user account.

Time Position Orientation Groundspeed Altitude Reporting Facility
EDT Latitude Longitude Course Direction KTS MPH feet Rate Location/Type
10:09PM 33.8611 -118.4833 195° South 254 292 3,900  Level Los Angeles Center
10:10PM 33.7839 -118.5008 191° South 281 323 6,700 2,880 Climbing Los Angeles Center
10:11PM 33.7042 -118.5039 182° South 296 341 9,900 2,340 Climbing Los Angeles Center
10:12PM 33.6636 -118.4142 118° Southeast 322 371 11,600 2,220 Climbing Los Angeles Center
10:13PM 33.6425 -118.2808 101° East 349 402 14,600 2,520 Climbing Los Angeles Center
10:14PM 33.6336 -118.3341 116° Southeast  Level FlightAware Approximate
10:14PM 33.6314 -118.1636 96° East 359 413 16,800  Level Los Angeles Center
10:15PM 33.6186 -118.0389 97° East 376 433 18,700 1,740 Climbing Los Angeles Center
10:16PM 33.6053 -117.9086 97° East 392 451 20,500 1,980 Climbing Los Angeles Center
10:18PM 33.5889 -117.7517 97° East 399 459 22,900 1,860 Climbing Los Angeles Center
10:19PM 33.5744 -117.6133 97° East 416 479 24,400 1,440 Climbing Los Angeles Center
10:20PM 33.5594 -117.4717 97° East 428 493 25,900 1,380 Climbing Los Angeles Center
10:21PM 33.5444 -117.3267 97° East 439 505 27,300 1,200 Climbing Los Angeles Center
10:22PM 33.5283 -117.1794 97° East 447 514 28,400 1,080 Climbing Los Angeles Center
10:23PM 33.5094 -117.0158 98° East 460 529 29,600 1,140 Climbing Los Angeles Center
10:24PM 33.4944 -116.8633 97° East 460 529 30,800 960 Climbing Los Angeles Center
10:25PM 33.4769 -116.7089 98° East 465 535 31,700 960 Climbing Los Angeles Center
10:26PM 33.4603 -116.5525 97° East 470 541 32,800 960 Climbing Los Angeles Center
10:27PM 33.4417 -116.3967 98° East 470 541 33,700 900 Climbing Los Angeles Center
10:28PM 33.4203 -116.2097 98° East 470 541 34,700 600 Climbing Los Angeles Center
10:29PM 33.4011 -116.0553 98° East 465 535 35,000 120 Climbing Los Angeles Center
10:30PM 33.3839 -115.9044 98° East 456 525 35,000  Level Los Angeles Center
10:31PM 33.3656 -115.7542 98° East 454 522 35,000  Level Los Angeles Center
10:32PM 33.3472 -115.6028 98° East 457 526 35,000  Level Los Angeles Center
10:33PM 33.3239 -115.4231 99° East 455 524 35,000  Level Los Angeles Center
10:34PM 33.3058 -115.2711 98° East 459 528 35,000  Level Los Angeles Center
10:35PM 33.2861 -115.1172 99° East 467 537 35,000  Level Los Angeles Center
10:36PM 33.2636 -114.9322 98° East 471 542 35,000  Level Los Angeles Center
10:37PM 33.2400 -114.7772 100° East 473 544 35,000  Level Los Angeles Center
10:38PM 33.2233 -114.6197 97° East 476 548 35,000  Level Los Angeles Center
10:39PM 33.2117 -114.5097 97° East 478 550 35,000  Level Albuquerque Center
10:40PM 33.1917 -114.3531 99° East 478 550 35,000  Level Albuquerque Center
10:41PM 33.1703 -114.1983 99° East 475 547 35,000  Level Albuquerque Center
10:42PM 33.1494 -114.0425 99° East 474 545 35,000  Level Albuquerque Center
10:43PM 33.1289 -113.8889 99° East 471 542 35,000  Level Albuquerque Center
10:44PM 33.1078 -113.7356 99° East 469 540 35,000  Level Albuquerque Center
10:45PM 33.0858 -113.5825 100° East 468 539 35,000 -600 Level Albuquerque Center
10:46PM 33.0644 -113.4281 99° East 470 541 33,900 -1,080 Descending Albuquerque Center
10:47PM 33.0428 -113.2764 100° East 466 536 32,900 -960 Descending Albuquerque Center
10:48PM 33.0200 -113.1217 100° East 468 539 32,000 -960 Descending Albuquerque Center
10:49PM 32.9933 -112.9303 99° East 478 550 31,000 -960 Descending Albuquerque Center
10:50PM 32.9703 -112.7714 100° East 485 558 30,100 -960 Descending Albuquerque Center
10:51PM 32.9356 -112.6175 105° East 485 558 29,100 -960 Descending Albuquerque Center
10:52PM 32.8789 -112.4711 115° Southeast 484 557 28,200 -1,020 Descending Albuquerque Center
10:53PM 32.8225 -112.3258 115° Southeast 483 556 27,100 -1,260 Descending Albuquerque Center
10:54PM 32.7708 -112.1900 114° Southeast 482 555 25,700 -1,860 Descending Albuquerque Center
10:55PM 32.7169 -112.0531 115° Southeast 470 541 23,300 -2,520 Descending Albuquerque Center
10:56PM 32.6575 -111.8972 114° Southeast 442 509 20,600 -2,400 Descending Albuquerque Center
10:57PM 32.6092 -111.7769 115° Southeast 416 479 18,500 -1,980 Descending Albuquerque Center
10:58PM 32.5794 -111.7078 117° Southeast 399 459 17,400 -1,980 Descending Albuquerque Center
10:58PM 32.5631 -111.6625 113° Southeast 395 455 16,500 -2,340 Descending Albuquerque Center
10:59PM 32.5136 -111.5736 123° Southeast 385 443 14,600 -2,280 Descending Albuquerque Center
10:59PM 32.5072 -111.5594 118° Southeast 379 436 14,200 -1,620 Descending Albuquerque Center
11:00PM 32.4478 -111.4878 134° Southeast 371 427 13,000 -1,500 Descending Albuquerque Center
11:00PM 32.4383 -111.4747 131° Southeast 362 417 12,700 -1,920 Descending Albuquerque Center
11:01PM 32.3756 -111.4111 139° Southeast 351 404 11,100 -1,800 Descending Albuquerque Center
11:01PM 32.3675 -111.3994 129° Southeast 347 399 10,900 -1,140 Descending Albuquerque Center
11:02PM 32.3069 -111.3436 142° Southeast 324 373 10,000 -1,080 Descending Albuquerque Center
11:02PM 32.2997 -111.3311 124° Southeast 329 379 9,800 -1,320 Descending Albuquerque Center
11:03PM 32.2436 -111.2822 144° Southeast 297 342 8,700 -1,200 Descending Albuquerque Center
11:04PM 32.2358 -111.2744 140° Southeast 298 343 8,600 -1,020 Descending Albuquerque Center
11:04PM 32.1947 -111.2172 130° Southeast 267 307 7,700 -1,260 Descending Albuquerque Center
11:05PM 32.1808 -111.1953 127° Southeast 266 306 7,300 -1,020 Descending Albuquerque Center
11:05PM 32.1533 -111.1581 131° Southeast 258 297 6,800 -1,020 Descending Albuquerque Center
11:06PM 32.1353 -111.1297 127° Southeast 260 299 6,300 -1,140 Descending Albuquerque Center
11:06PM 32.1072 -111.0972 136° Southeast 250 288 5,700 -1,080 Descending Albuquerque Center
11:07PM 32.0911 -111.0681 123° Southeast 255 293 5,200 -720 Descending Albuquerque Center
11:07PM 32.0603 -111.0319 135° Southeast 244 281 5,000 -240 Descending Albuquerque Center
11:08PM 32.0539 -111.0058 106° East 243 280 5,000 -300 Level Albuquerque Center
11:08PM 32.0467 -110.9628 101° East 223 257 4,700 -720 Descending Albuquerque Center
11:09PM 32.0422 -110.9364 101° East 231 266 4,300 -900 Descending Albuquerque Center
11:09PM 32.0489 -110.9092 74° East 164 189 3,800 -720 Descending Albuquerque Center
11:10PM 32.0842 -110.9022 North 144 166 3,200 -600 Descending Albuquerque Center
11:12PM 32.1000 -110.9333 337° Northwest  Level FlightAware Approximate